sensor_id;sensor_type;location;lat;lon;timestamp;pressure;altitude;pressure_sealevel;temperature;humidity
61484;BME280;47349;55.640;37.692;2024-03-02T00:02:08;100462.34;;;2.36;100.00
61484;BME280;47349;55.640;37.692;2024-03-02T00:06:10;100482.78;;;2.46;100.00
61484;BME280;47349;55.640;37.692;2024-03-02T00:09:28;100515.09;;;2.77;100.00
61484;BME280;47349;55.640;37.692;2024-03-02T00:13:30;100491.81;;;2.56;100.00
61484;BME280;47349;55.640;37.692;2024-03-02T00:16:54;100527.72;;;2.86;100.00
61484;BME280;47349;55.640;37.692;2024-03-02T00:20:00;100507.78;;;2.68;100.00
61484;BME280;47349;55.640;37.692;2024-03-02T00:23:19;100520.50;;;2.88;100.00
61484;BME280;47349;55.640;37.692;2024-03-02T00:26:33;100460.06;;;2.56;100.00
61484;BME280;47349;55.640;37.692;2024-03-02T00:29:36;100520.69;;;2.85;100.00
61484;BME280;47349;55.640;37.692;2024-03-02T00:32:47;100519.00;;;2.84;100.00
61484;BME280;47349;55.640;37.692;2024-03-02T00:36:31;100514.03;;;2.79;100.00
61484;BME280;47349;55.640;37.692;2024-03-02T00:39:21;100522.50;;;2.84;100.00
61484;BME280;47349;55.640;37.692;2024-03-02T00:43:04;100447.84;;;2.41;100.00
61484;BME280;47349;55.640;37.692;2024-03-02T00:46:28;100491.59;;;2.60;100.00
61484;BME280;47349;55.640;37.692;2024-03-02T00:49:35;100519.84;;;2.84;100.00
61484;BME280;47349;55.640;37.692;2024-03-02T00:52:52;100451.03;;;2.46;100.00
61484;BME280;47349;55.640;37.692;2024-03-02T00:55:36;100508.84;;;2.65;100.00
61484;BME280;47349;55.640;37.692;2024-03-02T00:58:56;100444.91;;;2.33;100.00
61484;BME280;47349;55.640;37.692;2024-03-02T01:02:09;100498.88;;;2.69;100.00
61484;BME280;47349;55.640;37.692;2024-03-02T01:05:16;100465.31;;;2.44;100.00
61484;BME280;47349;55.640;37.692;2024-03-02T01:08:12;100484.59;;;2.58;100.00
61484;BME280;47349;55.640;37.692;2024-03-02T01:11:31;100488.41;;;2.54;100.00
61484;BME280;47349;55.640;37.692;2024-03-02T01:14:49;100529.28;;;2.89;100.00
61484;BME280;47349;55.640;37.692;2024-03-02T01:17:56;100471.47;;;2.44;100.00
61484;BME280;47349;55.640;37.692;2024-03-02T01:21:10;100524.53;;;2.81;100.00
61484;BME280;47349;55.640;37.692;2024-03-02T01:24:16;100473.91;;;2.47;100.00
61484;BME280;47349;55.640;37.692;2024-03-02T01:27:53;100538.31;;;2.86;100.00
61484;BME280;47349;55.640;37.692;2024-03-02T01:31:08;100493.16;;;2.49;100.00
61484;BME280;47349;55.640;37.692;2024-03-02T01:33:55;100515.81;;;2.53;100.00
61484;BME280;47349;55.640;37.692;2024-03-02T01:37:44;100482.56;;;2.37;100.00
61484;BME280;47349;55.640;37.692;2024-03-02T01:40:52;100544.66;;;2.71;100.00
61484;BME280;47349;55.640;37.692;2024-03-02T01:44:01;100494.53;;;2.42;100.00
61484;BME280;47349;55.640;37.692;2024-03-02T01:47:02;100539.75;;;2.65;100.00
61484;BME280;47349;55.640;37.692;2024-03-02T01:50:21;100504.66;;;2.36;100.00
61484;BME280;47349;55.640;37.692;2024-03-02T01:57:14;100531.28;;;2.47;100.00
61484;BME280;47349;55.640;37.692;2024-03-02T02:00:05;100503.81;;;2.35;100.00
61484;BME280;47349;55.640;37.692;2024-03-02T02:03:15;100495.88;;;2.35;100.00
61484;BME280;47349;55.640;37.692;2024-03-02T02:10:55;100517.06;;;2.35;100.00
61484;BME280;47349;55.640;37.692;2024-03-02T02:14:18;100533.69;;;2.50;100.00
61484;BME280;47349;55.640;37.692;2024-03-02T02:17:03;100530.22;;;2.49;100.00
61484;BME280;47349;55.640;37.692;2024-03-02T02:20:19;100564.09;;;2.70;100.00
61484;BME280;47349;55.640;37.692;2024-03-02T02:23:32;100518.56;;;2.39;100.00
61484;BME280;47349;55.640;37.692;2024-03-02T02:26:58;100527.03;;;2.44;100.00
61484;BME280;47349;55.640;37.692;2024-03-02T02:30:10;100502.03;;;2.23;100.00
61484;BME280;47349;55.640;37.692;2024-03-02T02:42:12;100552.91;;;2.66;100.00
61484;BME280;47349;55.640;37.692;2024-03-02T02:46:11;100556.38;;;2.67;100.00
61484;BME280;47349;55.640;37.692;2024-03-02T02:49:17;100540.78;;;2.49;100.00
61484;BME280;47349;55.640;37.692;2024-03-02T02:52:09;100535.91;;;2.43;100.00
61484;BME280;47349;55.640;37.692;2024-03-02T02:55:13;100525.22;;;2.45;100.00
61484;BME280;47349;55.640;37.692;2024-03-02T02:58:47;100514.06;;;2.27;100.00
61484;BME280;47349;55.640;37.692;2024-03-02T03:02:32;100537.31;;;2.49;100.00
61484;BME280;47349;55.640;37.692;2024-03-02T03:06:11;100563.25;;;2.56;100.00
61484;BME280;47349;55.640;37.692;2024-03-02T03:13:44;100550.94;;;2.43;100.00
61484;BME280;47349;55.640;37.692;2024-03-02T03:16:56;100510.66;;;2.12;100.00
61484;BME280;47349;55.640;37.692;2024-03-02T03:20:18;100529.94;;;2.27;100.00
61484;BME280;47349;55.640;37.692;2024-03-02T03:24:14;100513.59;;;2.08;100.00
61484;BME280;47349;55.640;37.692;2024-03-02T03:27:50;100494.34;;;2.05;100.00
61484;BME280;47349;55.640;37.692;2024-03-02T03:31:51;100562.16;;;2.46;100.00
61484;BME280;47349;55.640;37.692;2024-03-02T03:35:21;100548.00;;;2.47;100.00
61484;BME280;47349;55.640;37.692;2024-03-02T03:38:29;100530.25;;;2.22;100.00
61484;BME280;47349;55.640;37.692;2024-03-02T03:41:21;100484.63;;;2.06;100.00
61484;BME280;47349;55.640;37.692;2024-03-02T03:47:49;100492.41;;;1.95;100.00
61484;BME280;47349;55.640;37.692;2024-03-02T03:51:03;100500.28;;;1.82;100.00
61484;BME280;47349;55.640;37.692;2024-03-02T03:53:59;100505.22;;;1.74;100.00
61484;BME280;47349;55.640;37.692;2024-03-02T03:57:17;100534.41;;;1.99;100.00
61484;BME280;47349;55.640;37.692;2024-03-02T04:00:03;100539.19;;;2.07;100.00
61484;BME280;47349;55.640;37.692;2024-03-02T04:09:55;100496.28;;;2.16;100.00
61484;BME280;47349;55.640;37.692;2024-03-02T04:13:33;100518.97;;;2.33;100.00
61484;BME280;47349;55.640;37.692;2024-03-02T04:30:28;100556.66;;;2.49;100.00
61484;BME280;47349;55.640;37.692;2024-03-02T04:33:20;100515.56;;;2.18;100.00
61484;BME280;47349;55.640;37.692;2024-03-02T04:36:40;100541.81;;;2.34;100.00
61484;BME280;47349;55.640;37.692;2024-03-02T04:39:45;100549.88;;;2.45;100.00
61484;BME280;47349;55.640;37.692;2024-03-02T04:43:58;100548.81;;;2.35;100.00
61484;BME280;47349;55.640;37.692;2024-03-02T04:47:37;100543.69;;;2.32;100.00
61484;BME280;47349;55.640;37.692;2024-03-02T04:51:52;100517.13;;;2.21;100.00
61484;BME280;47349;55.640;37.692;2024-03-02T04:55:49;100561.97;;;2.49;100.00
61484;BME280;47349;55.640;37.692;2024-03-02T04:59:26;100512.84;;;2.33;100.00
61484;BME280;47349;55.640;37.692;2024-03-02T05:03:10;100557.00;;;2.57;100.00
61484;BME280;47349;55.640;37.692;2024-03-02T05:06:35;100514.94;;;2.27;100.00
61484;BME280;47349;55.640;37.692;2024-03-02T05:10:18;100547.38;;;2.56;100.00
61484;BME280;47349;55.640;37.692;2024-03-02T05:14:12;100555.84;;;2.62;100.00
61484;BME280;47349;55.640;37.692;2024-03-02T05:17:18;100512.53;;;2.37;100.00
61484;BME280;47349;55.640;37.692;2024-03-02T05:20:31;100510.50;;;2.28;100.00
61484;BME280;47349;55.640;37.692;2024-03-02T05:24:14;100521.84;;;2.43;100.00
61484;BME280;47349;55.640;37.692;2024-03-02T05:27:51;100521.00;;;2.42;100.00
61484;BME280;47349;55.640;37.692;2024-03-02T05:30:44;100568.66;;;2.68;100.00
61484;BME280;47349;55.640;37.692;2024-03-02T05:38:57;100490.78;;;2.19;100.00
61484;BME280;47349;55.640;37.692;2024-03-02T05:42:18;100565.03;;;2.56;100.00
61484;BME280;47349;55.640;37.692;2024-03-02T05:53:12;100574.91;;;2.67;100.00
61484;BME280;47349;55.640;37.692;2024-03-02T05:56:06;100542.41;;;2.52;100.00
61484;BME280;47349;55.640;37.692;2024-03-02T05:59:20;100557.31;;;2.66;100.00
61484;BME280;47349;55.640;37.692;2024-03-02T06:02:10;100540.59;;;2.65;100.00
61484;BME280;47349;55.640;37.692;2024-03-02T06:05:04;100513.25;;;2.39;99.96
61484;BME280;47349;55.640;37.692;2024-03-02T06:08:00;100510.50;;;2.41;100.00
61484;BME280;47349;55.640;37.692;2024-03-02T06:10:51;100511.75;;;2.35;100.00
61484;BME280;47349;55.640;37.692;2024-03-02T06:13:54;100551.81;;;2.69;100.00
61484;BME280;47349;55.640;37.692;2024-03-02T06:16:48;100539.75;;;2.65;100.00
61484;BME280;47349;55.640;37.692;2024-03-02T06:19:34;100511.34;;;2.41;100.00
61484;BME280;47349;55.640;37.692;2024-03-02T06:22:51;100549.94;;;2.71;100.00
61484;BME280;47349;55.640;37.692;2024-03-02T06:26:02;100517.50;;;2.54;98.90
61484;BME280;47349;55.640;37.692;2024-03-02T06:28:58;100535.63;;;2.73;98.74
61484;BME280;47349;55.640;37.692;2024-03-02T06:32:40;100521.13;;;2.66;98.40
61484;BME280;47349;55.640;37.692;2024-03-02T06:35:24;100530.88;;;2.78;98.20
61484;BME280;47349;55.640;37.692;2024-03-02T06:39:02;100537.03;;;2.92;97.64
61484;BME280;47349;55.640;37.692;2024-03-02T06:41:52;100561.59;;;3.06;97.86
61484;BME280;47349;55.640;37.692;2024-03-02T06:44:35;100517.13;;;2.86;97.60
61484;BME280;47349;55.640;37.692;2024-03-02T06:47:17;100566.13;;;3.17;96.96
61484;BME280;47349;55.640;37.692;2024-03-02T06:49:59;100516.50;;;2.95;96.58
61484;BME280;47349;55.640;37.692;2024-03-02T06:52:56;100512.03;;;2.96;95.95
61484;BME280;47349;55.640;37.692;2024-03-02T06:55:55;100530.03;;;3.03;96.33
61484;BME280;47349;55.640;37.692;2024-03-02T06:58:51;100577.25;;;3.35;95.53
61484;BME280;47349;55.640;37.692;2024-03-02T07:31:58;100544.91;;;3.55;93.49
61484;BME280;47349;55.640;37.692;2024-03-02T07:34:45;100571.63;;;3.89;93.07
61484;BME280;47349;55.640;37.692;2024-03-02T07:37:42;100553.69;;;3.93;91.89
61484;BME280;47349;55.640;37.692;2024-03-02T07:40:31;100550.38;;;4.02;91.45
61484;BME280;47349;55.640;37.692;2024-03-02T07:43:00;100557.25;;;4.04;90.04
61484;BME280;47349;55.640;37.692;2024-03-02T07:45:56;100548.31;;;4.29;89.99
61484;BME280;47349;55.640;37.692;2024-03-02T07:49:07;100508.19;;;4.10;89.01
61484;BME280;47349;55.640;37.692;2024-03-02T07:52:00;100525.44;;;4.16;89.81
61484;BME280;47349;55.640;37.692;2024-03-02T07:54:50;100550.69;;;4.45;88.38
61484;BME280;47349;55.640;37.692;2024-03-02T07:58:06;100537.63;;;4.42;87.67
61484;BME280;47349;55.640;37.692;2024-03-02T08:00:56;100516.09;;;4.23;87.62
61484;BME280;47349;55.640;37.692;2024-03-02T08:03:47;100512.72;;;4.21;87.80
61484;BME280;47349;55.640;37.692;2024-03-02T08:06:53;100542.72;;;4.45;87.50
61484;BME280;47349;55.640;37.692;2024-03-02T08:09:49;100517.06;;;4.22;86.64
61484;BME280;47349;55.640;37.692;2024-03-02T08:12:27;100567.81;;;4.41;86.53
61484;BME280;47349;55.640;37.692;2024-03-02T08:15:29;100570.84;;;4.48;87.11
61484;BME280;47349;55.640;37.692;2024-03-02T08:24:34;100507.97;;;4.13;86.68
61484;BME280;47349;55.640;37.692;2024-03-02T08:27:07;100540.00;;;4.34;87.07
61484;BME280;47349;55.640;37.692;2024-03-02T08:29:50;100550.13;;;4.29;86.14
61484;BME280;47349;55.640;37.692;2024-03-02T08:32:39;100542.41;;;4.26;86.22
61484;BME280;47349;55.640;37.692;2024-03-02T08:36:14;100554.03;;;4.36;85.50
61484;BME280;47349;55.640;37.692;2024-03-02T08:39:12;100577.38;;;4.55;84.48
61484;BME280;47349;55.640;37.692;2024-03-02T08:52:10;100558.19;;;4.51;84.03
61484;BME280;47349;55.640;37.692;2024-03-02T08:54:55;100524.91;;;4.23;84.08
61484;BME280;47349;55.640;37.692;2024-03-02T08:59:05;100504.69;;;4.09;83.97
61484;BME280;47349;55.640;37.692;2024-03-02T09:04:49;100576.28;;;4.57;84.02
61484;BME280;47349;55.640;37.692;2024-03-02T09:36:52;100506.00;;;4.39;85.63
61484;BME280;47349;55.640;37.692;2024-03-02T09:39:56;100553.84;;;4.50;86.21
61484;BME280;47349;55.640;37.692;2024-03-02T09:42:51;100515.91;;;4.37;84.88
61484;BME280;47349;55.640;37.692;2024-03-02T09:45:50;100492.94;;;4.25;84.44
61484;BME280;47349;55.640;37.692;2024-03-02T09:48:37;100553.88;;;4.61;84.68
61484;BME280;47349;55.640;37.692;2024-03-02T12:19:04;100531.75;;;5.52;72.13
61484;BME280;47349;55.640;37.692;2024-03-02T12:23:15;100502.66;;;5.94;70.18
61484;BME280;47349;55.640;37.692;2024-03-02T12:27:24;100496.81;;;6.32;67.51
61484;BME280;47349;55.640;37.692;2024-03-02T12:31:30;100469.06;;;6.77;66.08
61484;BME280;47349;55.640;37.692;2024-03-02T12:36:18;100489.91;;;7.23;63.22
61484;BME280;47349;55.640;37.692;2024-03-02T12:40:24;100528.94;;;7.64;61.69
61484;BME280;47349;55.640;37.692;2024-03-02T13:03:02;100536.63;;;6.02;65.13
61484;BME280;47349;55.640;37.692;2024-03-02T13:07:18;100493.66;;;5.40;66.35
61484;BME280;47349;55.640;37.692;2024-03-02T13:11:27;100520.97;;;5.31;68.15
61484;BME280;47349;55.640;37.692;2024-03-02T13:15:30;100498.88;;;4.86;69.43
61484;BME280;47349;55.640;37.692;2024-03-02T13:20:08;100548.47;;;4.74;70.51
61484;BME280;47349;55.640;37.692;2024-03-02T13:24:10;100491.50;;;4.21;71.53
61484;BME280;47349;55.640;37.692;2024-03-02T14:27:40;100550.78;;;4.44;74.81
61484;BME280;47349;55.640;37.692;2024-03-02T14:31:23;100575.09;;;4.26;75.49
61484;BME280;47349;55.640;37.692;2024-03-02T14:35:12;100534.69;;;3.99;76.51
61484;BME280;47349;55.640;37.692;2024-03-02T14:38:46;100537.00;;;4.03;76.24
61484;BME280;47349;55.640;37.692;2024-03-02T14:42:22;100524.56;;;4.04;76.37
61484;BME280;47349;55.640;37.692;2024-03-02T14:46:54;100505.50;;;3.75;76.74
61484;BME280;47349;55.640;37.692;2024-03-02T14:50:36;100493.81;;;3.53;77.55
61484;BME280;47349;55.640;37.692;2024-03-02T14:54:24;100558.00;;;3.70;78.78
61484;BME280;47349;55.640;37.692;2024-03-02T14:57:53;100513.88;;;3.32;79.69
61484;BME280;47349;55.640;37.692;2024-03-02T15:01:26;100526.84;;;3.11;78.72
61484;BME280;47349;55.640;37.692;2024-03-02T15:04:12;100489.16;;;2.82;79.23
61484;BME280;47349;55.640;37.692;2024-03-02T15:07:53;100564.47;;;3.16;80.46
61484;BME280;47349;55.640;37.692;2024-03-02T15:10:43;100574.72;;;3.08;80.78
61484;BME280;47349;55.640;37.692;2024-03-02T15:13:59;100533.41;;;2.80;80.89
61484;BME280;47349;55.640;37.692;2024-03-02T15:16:46;100590.19;;;3.01;80.88
61484;BME280;47349;55.640;37.692;2024-03-02T15:19:42;100542.50;;;2.63;81.51
61484;BME280;47349;55.640;37.692;2024-03-02T15:22:30;100576.84;;;2.90;82.03
61484;BME280;47349;55.640;37.692;2024-03-02T15:25:52;100533.34;;;2.42;82.31
61484;BME280;47349;55.640;37.692;2024-03-02T15:28:37;100552.88;;;2.53;83.19
61484;BME280;47349;55.640;37.692;2024-03-02T15:31:42;100583.78;;;2.66;83.74
61484;BME280;47349;55.640;37.692;2024-03-02T15:34:32;100535.03;;;2.30;84.03
61484;BME280;47349;55.640;37.692;2024-03-02T18:49:20;100620.47;;;0.15;92.21
61484;BME280;47349;55.640;37.692;2024-03-02T18:52:04;100614.84;;;-0.11;92.02
61484;BME280;47349;55.640;37.692;2024-03-02T18:55:11;100627.16;;;-0.11;92.10
61484;BME280;47349;55.640;37.692;2024-03-02T18:58:01;100582.38;;;-0.27;91.70
61484;BME280;47349;55.640;37.692;2024-03-02T19:01:45;100627.59;;;0.13;91.35
61484;BME280;47349;55.640;37.692;2024-03-02T19:05:32;100633.28;;;0.21;92.05
61484;BME280;47349;55.640;37.692;2024-03-02T19:08:16;100578.47;;;-0.20;91.26
61484;BME280;47349;55.640;37.692;2024-03-02T19:11:17;100593.59;;;-0.08;91.58
61484;BME280;47349;55.640;37.692;2024-03-02T19:14:46;100563.94;;;-0.27;91.05
61484;BME280;47349;55.640;37.692;2024-03-02T19:18:53;100605.50;;;-0.01;91.71
61484;BME280;47349;55.640;37.692;2024-03-02T19:22:34;100615.13;;;0.01;91.62
61484;BME280;47349;55.640;37.692;2024-03-02T19:26:12;100613.41;;;-0.16;92.31
61484;BME280;47349;55.640;37.692;2024-03-02T19:29:09;100581.88;;;-0.34;92.85
61484;BME280;47349;55.640;37.692;2024-03-02T19:32:44;100591.13;;;-0.27;93.04
61484;BME280;47349;55.640;37.692;2024-03-02T19:36:25;100561.06;;;-0.38;93.79
61484;BME280;47349;55.640;37.692;2024-03-02T19:39:36;100635.75;;;-0.08;94.17
61484;BME280;47349;55.640;37.692;2024-03-02T19:42:26;100610.34;;;-0.09;94.35
61484;BME280;47349;55.640;37.692;2024-03-02T19:45:14;100598.94;;;-0.25;94.15
61484;BME280;47349;55.640;37.692;2024-03-02T19:48:11;100586.03;;;-0.30;94.48
61484;BME280;47349;55.640;37.692;2024-03-02T19:51:43;100575.22;;;-0.57;95.58
61484;BME280;47349;55.640;37.692;2024-03-02T19:55:10;100565.88;;;-0.62;96.15
61484;BME280;47349;55.640;37.692;2024-03-02T19:57:53;100610.06;;;-0.36;96.75
61484;BME280;47349;55.640;37.692;2024-03-02T20:00:39;100599.03;;;-0.42;97.13
61484;BME280;47349;55.640;37.692;2024-03-02T20:03:22;100587.47;;;-0.56;97.19
61484;BME280;47349;55.640;37.692;2024-03-02T20:06:19;100578.44;;;-0.67;98.00
61484;BME280;47349;55.640;37.692;2024-03-02T20:09:21;100618.72;;;-0.49;98.51
61484;BME280;47349;55.640;37.692;2024-03-02T20:12:06;100631.88;;;-0.49;99.20
61484;BME280;47349;55.640;37.692;2024-03-02T20:14:53;100621.19;;;-0.46;99.19
61484;BME280;47349;55.640;37.692;2024-03-02T20:17:38;100645.94;;;-0.33;99.98
61484;BME280;47349;55.640;37.692;2024-03-02T20:20:30;100622.97;;;-0.63;100.00
61484;BME280;47349;55.640;37.692;2024-03-02T20:23:18;100639.28;;;-0.40;100.00
61484;BME280;47349;55.640;37.692;2024-03-02T20:26:32;100596.53;;;-0.77;100.00
61484;BME280;47349;55.640;37.692;2024-03-02T20:29:14;100622.19;;;-0.65;100.00
61484;BME280;47349;55.640;37.692;2024-03-02T20:31:57;100636.03;;;-0.61;100.00
61484;BME280;47349;55.640;37.692;2024-03-02T20:34:39;100624.97;;;-0.68;100.00
61484;BME280;47349;55.640;37.692;2024-03-02T20:37:18;100616.16;;;-0.67;100.00
61484;BME280;47349;55.640;37.692;2024-03-02T20:40:01;100583.75;;;-0.85;100.00
61484;BME280;47349;55.640;37.692;2024-03-02T20:42:54;100603.34;;;-0.90;100.00
61484;BME280;47349;55.640;37.692;2024-03-02T20:46:04;100638.56;;;-0.60;100.00
61484;BME280;47349;55.640;37.692;2024-03-02T20:49:31;100661.19;;;-0.56;100.00
61484;BME280;47349;55.640;37.692;2024-03-02T20:52:20;100577.28;;;-1.12;100.00
61484;BME280;47349;55.640;37.692;2024-03-02T22:38:09;100679.91;;;-1.66;98.80
61484;BME280;47349;55.640;37.692;2024-03-02T23:36:31;100728.06;;;-1.84;97.17
